Time;durP1;ratioP1;P1;durP2;ratioP2;P2;SDS_P1;SDS_P2;PMS_P1;PMS_P2;Temp;Humidity;BMP_temperature;BMP_pressure;BME280_temperature;BME280_humidity;BME280_pressure;Samples;Min_cycle;Max_cycle;Signal;HPM_P1;HPM_P2
2022/08/19 00:00:32;;;;;;;11.30;3.10;;;43.20;41.80;;;;;;5071163;28;20378;-60
2022/08/19 00:02:58;;;;;;;13.43;3.05;;;43.20;41.50;;;;;;5073222;28;20112;-59
2022/08/19 00:05:25;;;;;;;12.10;2.70;;;43.20;41.90;;;;;;5085972;28;20116;-59
2022/08/19 00:07:52;;;;;;;11.48;2.85;;;43.10;41.00;;;;;;5069648;28;20028;-61
2022/08/19 00:10:19;;;;;;;9.95;2.67;;;43.10;41.10;;;;;;5074723;28;20020;-60
2022/08/19 00:12:46;;;;;;;12.82;2.88;;;43.00;41.00;;;;;;5073361;28;20032;-60
2022/08/19 00:15:16;;;;;;;12.75;2.72;;;43.00;40.70;;;;;;5070571;28;20062;-61
2022/08/19 00:17:44;;;;;;;10.10;2.55;;;42.90;41.80;;;;;;5070485;28;20415;-61
2022/08/19 00:20:16;;;;;;;9.20;2.47;;;42.90;40.50;;;;;;5069800;28;20466;-61
2022/08/19 00:22:43;;;;;;;11.20;2.60;;;42.80;40.80;;;;;;5070628;28;20146;-60
2022/08/19 00:25:11;;;;;;;22.55;5.82;;;42.80;41.20;;;;;;5071344;28;20077;-61
2022/08/19 00:27:38;;;;;;;10.68;2.63;;;42.50;41.00;;;;;;5071023;28;20488;-60
2022/08/19 00:30:06;;;;;;;13.95;2.70;;;42.50;40.80;;;;;;5071749;28;20149;-60
2022/08/19 00:32:34;;;;;;;9.93;2.70;;;42.50;41.50;;;;;;5069667;28;20017;-61
2022/08/19 00:35:01;;;;;;;13.25;2.92;;;42.50;41.40;;;;;;5071056;28;20421;-61
2022/08/19 00:37:28;;;;;;;12.32;3.00;;;42.40;41.20;;;;;;5070496;28;20051;-63
2022/08/19 00:39:55;;;;;;;13.40;2.65;;;42.40;41.50;;;;;;5070447;28;20025;-60
2022/08/19 00:42:22;;;;;;;13.25;2.70;;;42.30;41.10;;;;;;5067137;28;20027;-60
2022/08/19 00:44:50;;;;;;;9.65;2.53;;;42.30;41.00;;;;;;5070291;28;20036;-60
2022/08/19 00:47:17;;;;;;;12.20;2.83;;;42.10;41.40;;;;;;5069976;28;20105;-61
2022/08/19 00:49:53;;;;;;;7.47;2.50;;;42.10;41.30;;;;;;5053051;28;20027;-61
2022/08/19 00:52:28;;;;;;;11.13;2.28;;;42.10;41.90;;;;;;5068582;28;20020;-62
2022/08/19 00:54:56;;;;;;;8.63;2.47;;;42.00;41.50;;;;;;5053407;28;20051;-62
2022/08/19 00:57:37;;;;;;;10.52;2.65;;;41.80;42.30;;;;;;5053136;28;20792;-61
2022/08/19 01:00:10;;;;;;;10.95;2.25;;;41.80;41.80;;;;;;5069732;28;20060;-60
2022/08/19 01:02:37;;;;;;;12.77;2.10;;;41.70;41.80;;;;;;5059496;28;20472;-61
2022/08/19 01:05:08;;;;;;;13.10;2.20;;;41.70;42.00;;;;;;5070490;28;20078;-60
2022/08/19 01:07:35;;;;;;;10.73;3.00;;;41.60;41.00;;;;;;5066715;28;20029;-61
2022/08/19 01:10:03;;;;;;;9.43;2.50;;;41.60;42.20;;;;;;5067051;28;20087;-60
2022/08/19 01:12:30;;;;;;;9.55;2.38;;;41.50;42.70;;;;;;5069385;28;20043;-61
2022/08/19 01:14:56;;;;;;;10.30;2.70;;;41.50;41.90;;;;;;5067183;28;20090;-61
2022/08/19 01:17:23;;;;;;;14.27;2.65;;;41.50;42.20;;;;;;5051026;28;20031;-61
2022/08/19 01:19:50;;;;;;;11.05;2.70;;;41.40;42.70;;;;;;5069190;28;20039;-60
2022/08/19 01:22:53;;;;;;;14.05;2.67;;;41.30;41.90;;;;;;5067875;28;20650;-61
2022/08/19 01:25:24;;;;;;;14.15;2.65;;;41.20;43.00;;;;;;4972197;28;20101;-60
2022/08/19 01:27:54;;;;;;;8.48;2.42;;;41.20;42.60;;;;;;4971367;28;20451;-61
2022/08/19 01:30:26;;;;;;;13.20;2.50;;;41.10;42.90;;;;;;4972904;28;20069;-60
2022/08/19 01:32:53;;;;;;;16.70;2.70;;;41.00;43.10;;;;;;4987955;28;20531;-62
2022/08/19 01:35:23;;;;;;;13.55;2.40;;;40.90;43.20;;;;;;4973475;28;20568;-61
2022/08/19 01:37:59;;;;;;;12.15;2.78;;;40.80;42.80;;;;;;4972602;28;20062;-60
2022/08/19 01:40:30;;;;;;;13.57;2.63;;;40.80;43.60;;;;;;4972444;28;20159;-61
2022/08/19 01:42:57;;;;;;;10.55;2.60;;;40.70;43.10;;;;;;4972784;28;20043;-60
2022/08/19 01:45:25;;;;;;;13.93;2.78;;;40.70;43.70;;;;;;4971365;28;20135;-60
2022/08/19 01:47:53;;;;;;;17.48;2.53;;;40.60;44.70;;;;;;4971296;28;20562;-60
2022/08/19 01:50:20;;;;;;;16.85;3.08;;;40.60;43.70;;;;;;4971384;28;20507;-61
2022/08/19 01:52:46;;;;;;;16.48;2.88;;;40.50;43.60;;;;;;4987035;28;20049;-60
2022/08/19 01:55:16;;;;;;;12.40;2.80;;;40.40;44.00;;;;;;4987386;28;20050;-61
2022/08/19 01:57:47;;;;;;;19.88;2.90;;;40.30;45.40;;;;;;4969691;28;20549;-61
2022/08/19 02:00:17;;;;;;;19.10;3.20;;;40.30;46.10;;;;;;5057986;28;20160;-61
2022/08/19 02:02:44;;;;;;;12.90;2.85;;;40.10;46.10;;;;;;5068163;28;20042;-61
2022/08/19 02:05:11;;;;;;;13.27;2.72;;;40.10;46.30;;;;;;5068983;28;20145;-61
2022/08/19 02:07:40;;;;;;;16.83;3.25;;;40.00;46.40;;;;;;5066706;28;20044;-61
2022/08/19 02:10:13;;;;;;;14.70;2.50;;;39.90;48.90;;;;;;5065745;28;20090;-61
2022/08/19 02:12:40;;;;;;;17.35;2.90;;;39.80;47.70;;;;;;5069547;28;20028;-61
2022/08/19 02:15:07;;;;;;;11.02;2.90;;;39.70;47.70;;;;;;5081845;28;20043;-61
2022/08/19 02:17:34;;;;;;;17.85;3.15;;;39.60;47.20;;;;;;5068946;28;20056;-61
2022/08/19 02:20:01;;;;;;;13.15;3.15;;;39.60;47.30;;;;;;5050632;28;20040;-60
2022/08/19 02:22:27;;;;;;;12.13;2.83;;;39.50;47.70;;;;;;5050432;28;20117;-60
2022/08/19 02:24:55;;;;;;;16.27;3.08;;;39.60;48.30;;;;;;5067456;28;20519;-61
2022/08/19 02:27:22;;;;;;;14.63;3.10;;;39.50;47.40;;;;;;5067715;28;20072;-61
2022/08/19 02:29:50;;;;;;;14.90;3.03;;;39.40;46.50;;;;;;5067595;28;20062;-61
2022/08/19 02:32:19;;;;;;;21.40;3.13;;;39.30;46.60;;;;;;5067454;28;20140;-60
2022/08/19 02:34:46;;;;;;;13.23;3.03;;;39.30;46.50;;;;;;5067393;28;20046;-61
2022/08/19 02:39:59;;;;;;;16.50;3.13;;;39.20;47.00;;;;;;5068084;28;20044;-61
2022/08/19 02:42:26;;;;;;;18.60;3.42;;;39.10;47.20;;;;;;5067734;28;20048;-61
2022/08/19 02:44:52;;;;;;;20.10;2.85;;;39.10;47.80;;;;;;5072279;28;20072;-60
2022/08/19 02:47:19;;;;;;;14.73;3.00;;;39.10;48.10;;;;;;5088063;28;20491;-61
2022/08/19 02:49:46;;;;;;;17.17;2.90;;;39.00;46.80;;;;;;5071119;28;20055;-61
2022/08/19 02:52:12;;;;;;;23.02;3.28;;;38.90;47.40;;;;;;5072521;28;20032;-61
2022/08/19 02:54:39;;;;;;;12.40;2.83;;;39.00;48.10;;;;;;5071901;28;20036;-62
2022/08/19 02:57:06;;;;;;;19.50;3.53;;;38.90;47.80;;;;;;5073394;28;20057;-61
2022/08/19 02:59:32;;;;;;;19.52;3.55;;;38.80;47.40;;;;;;5071613;28;20045;-59
2022/08/19 03:01:59;;;;;;;32.90;3.53;;;38.80;47.50;;;;;;5070609;28;20513;-62
2022/08/19 03:04:25;;;;;;;38.65;4.13;;;38.80;47.00;;;;;;5070311;28;20099;-61
2022/08/19 03:06:53;;;;;;;36.90;3.72;;;38.80;52.20;;;;;;5072345;28;20057;-61
2022/08/19 03:09:20;;;;;;;31.30;3.40;;;38.70;53.40;;;;;;5069649;28;20065;-61
2022/08/19 03:11:47;;;;;;;34.33;3.30;;;38.60;53.90;;;;;;5070945;28;20051;-61
2022/08/19 03:14:14;;;;;;;29.00;3.47;;;38.50;54.20;;;;;;5087259;28;20420;-60
2022/08/19 03:16:47;;;;;;;23.73;2.38;;;38.40;54.60;;;;;;5071983;28;20408;-61
2022/08/19 03:19:16;;;;;;;28.33;3.15;;;38.30;54.90;;;;;;5070200;28;20062;-61
2022/08/19 03:21:44;;;;;;;20.60;2.45;;;38.30;55.10;;;;;;5071755;28;20462;-60
2022/08/19 03:24:11;;;;;;;13.77;2.67;;;38.20;55.60;;;;;;5073560;28;20100;-61
2022/08/19 03:26:44;;;;;;;27.10;2.83;;;38.10;56.00;;;;;;5069849;28;20077;-61
2022/08/19 03:29:11;;;;;;;20.05;2.60;;;38.00;56.00;;;;;;5070418;28;20563;-61
2022/08/19 03:31:39;;;;;;;14.45;2.55;;;38.00;56.40;;;;;;5071032;28;20042;-61
2022/08/19 03:34:06;;;;;;;12.82;2.20;;;37.90;56.80;;;;;;5068428;28;20142;-60
2022/08/19 03:36:33;;;;;;;20.75;3.08;;;37.90;57.10;;;;;;5070706;28;20046;-61
2022/08/19 03:39:01;;;;;;;12.18;2.20;;;37.80;57.20;;;;;;5086473;28;20063;-60
2022/08/19 03:41:31;;;;;;;18.95;2.28;;;37.70;57.20;;;;;;5068774;28;20047;-60
2022/08/19 03:43:58;;;;;;;17.00;2.50;;;37.60;57.40;;;;;;5070128;28;20142;-59
2022/08/19 03:46:30;;;;;;;12.70;2.25;;;37.60;57.30;;;;;;5068552;28;20068;-61
2022/08/19 03:48:59;;;;;;;22.05;2.40;;;37.50;57.00;;;;;;5068511;28;20063;-59
2022/08/19 03:51:28;;;;;;;11.70;2.40;;;37.40;57.20;;;;;;5069552;28;20057;-63
2022/08/19 03:53:55;;;;;;;13.10;2.30;;;37.30;57.30;;;;;;5068871;28;20139;-59
2022/08/19 03:56:25;;;;;;;16.65;2.60;;;37.30;57.60;;;;;;5068373;28;20102;-59
2022/08/19 03:58:52;;;;;;;14.75;2.90;;;37.20;57.60;;;;;;5071100;28;20517;-59
2022/08/19 04:01:21;;;;;;;19.88;3.17;;;37.20;57.80;;;;;;5068731;28;20054;-60
2022/08/19 04:03:48;;;;;;;20.10;3.00;;;37.20;57.80;;;;;;5067574;28;20140;-60
2022/08/19 04:06:21;;;;;;;17.17;2.88;;;37.20;57.90;;;;;;5068468;28;20064;-60
2022/08/19 04:08:55;;;;;;;19.67;2.72;;;37.10;58.20;;;;;;5068513;28;20084;-61
2022/08/19 04:11:31;;;;;;;12.07;2.40;;;37.00;58.10;;;;;;5068222;28;20056;-62
2022/08/19 04:13:58;;;;;;;13.73;2.72;;;37.00;58.30;;;;;;5068002;28;20108;-60
2022/08/19 04:16:29;;;;;;;12.23;2.22;;;37.10;58.40;;;;;;5069882;28;20166;-60
2022/08/19 04:18:59;;;;;;;12.73;2.53;;;37.00;58.90;;;;;;5068409;28;20138;-61
2022/08/19 04:21:26;;;;;;;12.95;1.90;;;36.90;58.40;;;;;;5067573;28;20386;-61
2022/08/19 04:23:54;;;;;;;21.05;3.15;;;36.90;58.50;;;;;;5069153;28;20058;-59
2022/08/19 04:26:32;;;;;;;11.60;2.60;;;36.90;58.70;;;;;;5068348;28;20418;-61
2022/08/19 04:29:06;;;;;;;10.68;2.58;;;36.80;58.80;;;;;;5068364;28;20064;-61
2022/08/19 04:31:36;;;;;;;18.38;2.50;;;36.70;58.80;;;;;;5070602;28;20201;-61
2022/08/19 04:34:05;;;;;;;18.00;2.65;;;36.70;58.90;;;;;;5067869;28;20618;-61
2022/08/19 04:36:35;;;;;;;13.80;2.80;;;36.70;58.90;;;;;;5068863;28;20066;-61
2022/08/19 04:39:09;;;;;;;19.48;2.38;;;36.70;59.00;;;;;;5068118;28;20109;-60
2022/08/19 04:44:20;;;;;;;14.88;2.50;;;36.60;59.30;;;;;;5071068;28;20202;-60
2022/08/19 04:46:48;;;;;;;19.05;3.03;;;36.50;59.30;;;;;;5067568;28;20103;-60
2022/08/19 04:49:16;;;;;;;15.85;2.33;;;36.50;59.30;;;;;;5066983;28;20086;-61
2022/08/19 04:51:46;;;;;;;19.25;2.85;;;36.40;59.30;;;;;;5052538;28;20529;-59
2022/08/19 04:54:14;;;;;;;10.60;3.13;;;36.40;59.50;;;;;;5067301;28;20104;-61
2022/08/19 04:56:41;;;;;;;14.70;3.80;;;36.40;59.70;;;;;;5068463;28;20095;-61
2022/08/19 04:59:08;;;;;;;22.65;3.70;;;36.40;59.50;;;;;;5067434;28;20062;-60
2022/08/19 05:01:36;;;;;;;12.05;3.13;;;36.30;59.50;;;;;;5070927;28;20118;-60
2022/08/19 05:04:05;;;;;;;25.48;3.72;;;36.30;59.70;;;;;;5067554;28;20063;-60
2022/08/19 05:06:33;;;;;;;22.88;2.80;;;36.30;59.80;;;;;;5067374;28;20099;-60
2022/08/19 05:09:04;;;;;;;17.13;3.83;;;36.20;59.70;;;;;;5070103;28;20071;-62
2022/08/19 05:11:38;;;;;;;17.15;4.10;;;36.20;59.90;;;;;;5066045;28;20071;-62
2022/08/19 05:14:06;;;;;;;22.15;4.93;;;36.20;59.90;;;;;;5067615;28;20094;-61
2022/08/19 05:16:33;;;;;;;29.42;7.50;;;36.10;60.00;;;;;;5067587;28;20133;-60
2022/08/19 05:24:30;;;;;;;30.40;7.83;;;36.00;59.60;;;;;;5068453;28;20106;-60
2022/08/19 05:26:57;;;;;;;32.50;7.93;;;35.90;59.60;;;;;;5068150;28;20072;-60
2022/08/19 05:29:26;;;;;;;22.27;7.00;;;35.90;59.50;;;;;;5063757;28;20145;-59
2022/08/19 05:31:54;;;;;;;25.67;6.68;;;35.90;59.30;;;;;;5064994;28;20137;-60
2022/08/19 05:34:23;;;;;;;30.00;7.28;;;35.90;59.40;;;;;;5069266;28;20518;-61
2022/08/19 05:36:55;;;;;;;18.88;5.28;;;35.90;59.50;;;;;;5051989;28;20433;-60
2022/08/19 05:39:22;;;;;;;24.50;5.18;;;35.90;59.10;;;;;;5068167;28;20062;-60
2022/08/19 05:41:58;;;;;;;25.33;4.70;;;35.90;58.90;;;;;;5068754;28;20089;-62
2022/08/19 05:44:25;;;;;;;27.17;3.78;;;35.90;58.60;;;;;;5069846;28;20155;-61
2022/08/19 05:46:53;;;;;;;33.63;5.22;;;35.80;58.50;;;;;;5067832;28;20426;-62
2022/08/19 05:49:22;;;;;;;21.83;3.60;;;35.80;58.50;;;;;;5069040;28;20110;-62
2022/08/19 05:51:50;;;;;;;20.02;3.53;;;35.80;58.30;;;;;;5051708;28;20074;-64
2022/08/19 05:54:17;;;;;;;24.02;9.60;;;35.90;58.30;;;;;;5067915;28;20056;-63
2022/08/19 05:56:44;;;;;;;21.98;6.55;;;35.80;59.10;;;;;;5066683;28;20599;-64
2022/08/19 05:59:11;;;;;;;17.08;3.92;;;35.80;58.70;;;;;;5067958;28;20063;-63
2022/08/19 06:01:42;;;;;;;19.33;3.33;;;35.80;59.40;;;;;;5068727;28;20093;-62
2022/08/19 06:04:09;;;;;;;16.17;2.67;;;35.80;58.90;;;;;;5068354;28;20556;-63
2022/08/19 06:06:36;;;;;;;20.23;3.70;;;35.80;60.00;;;;;;5072289;28;20066;-63
2022/08/19 06:09:05;;;;;;;14.15;2.95;;;35.70;59.50;;;;;;5068155;28;20137;-63
2022/08/19 06:11:44;;;;;;;12.70;2.78;;;35.70;59.40;;;;;;5067420;28;20445;-62
2022/08/19 06:14:13;;;;;;;48.13;4.15;;;35.70;59.60;;;;;;5067057;28;20079;-62
2022/08/19 06:16:42;;;;;;;186.27;12.63;;;35.70;61.40;;;;;;5069081;28;20067;-65
2022/08/19 06:19:15;;;;;;;248.25;15.82;;;35.50;64.30;;;;;;5065522;28;20092;-66
2022/08/19 06:21:44;;;;;;;196.68;13.10;;;35.10;67.20;;;;;;5067068;28;20071;-65
2022/08/19 06:24:13;;;;;;;168.43;10.65;;;34.90;68.20;;;;;;5067618;28;20546;-64
2022/08/19 06:26:43;;;;;;;146.75;11.63;;;34.90;67.70;;;;;;5066089;28;20101;-66
2022/08/19 06:29:11;;;;;;;157.02;11.38;;;34.90;68.10;;;;;;5064943;28;20057;-65
2022/08/19 06:31:40;;;;;;;146.65;11.43;;;34.80;67.50;;;;;;5064900;28;20068;-64
2022/08/19 06:34:07;;;;;;;197.98;14.80;;;34.70;67.30;;;;;;5067130;28;20084;-63
2022/08/19 06:36:37;;;;;;;203.68;14.38;;;34.60;66.00;;;;;;5075876;28;20543;-63
2022/08/19 06:39:07;;;;;;;236.10;15.48;;;34.50;65.90;;;;;;5066885;28;20079;-64
2022/08/19 06:41:38;;;;;;;283.90;19.35;;;34.50;64.70;;;;;;5067037;28;20176;-64
2022/08/19 06:44:05;;;;;;;361.45;27.25;;;34.40;64.70;;;;;;5067823;28;20479;-65
2022/08/19 06:46:32;;;;;;;397.77;32.13;;;34.40;64.40;;;;;;5069130;28;20085;-64
2022/08/19 06:48:58;;;;;;;587.95;57.35;;;34.30;64.20;;;;;;5051082;28;20156;-63
2022/08/19 06:51:25;;;;;;;696.30;72.78;;;34.20;65.20;;;;;;5066765;28;20086;-65
2022/08/19 06:53:54;;;;;;;657.53;66.93;;;34.10;66.30;;;;;;5068662;28;20070;-64
2022/08/19 06:56:34;;;;;;;668.80;68.47;;;33.90;66.60;;;;;;5064873;28;20196;-63
2022/08/19 06:59:08;;;;;;;544.03;49.80;;;33.80;67.10;;;;;;5066610;28;20087;-63
2022/08/19 07:01:37;;;;;;;536.30;48.38;;;33.80;66.80;;;;;;5066559;28;20076;-63
2022/08/19 07:04:05;;;;;;;342.45;30.65;;;33.60;67.20;;;;;;5066476;28;20451;-64
2022/08/19 07:06:31;;;;;;;269.15;18.52;;;33.60;66.90;;;;;;5067377;28;20077;-64
2022/08/19 07:08:58;;;;;;;210.10;15.05;;;33.50;66.30;;;;;;5066593;28;20171;-63
2022/08/19 07:11:25;;;;;;;208.38;14.52;;;33.40;66.40;;;;;;5066951;28;20158;-64
2022/08/19 07:13:52;;;;;;;223.45;13.07;;;33.30;67.00;;;;;;5069535;28;20082;-62
2022/08/19 07:16:20;;;;;;;201.35;12.38;;;33.20;67.40;;;;;;5051534;28;20070;-63
2022/08/19 07:18:48;;;;;;;172.52;11.18;;;33.10;67.70;;;;;;5066714;28;20098;-66
2022/08/19 07:21:22;;;;;;;189.65;13.55;;;33.00;68.30;;;;;;5067420;28;20130;-63
2022/08/19 07:23:49;;;;;;;176.20;13.95;;;32.90;68.40;;;;;;5066522;28;20091;-63
2022/08/19 07:26:19;;;;;;;166.77;10.32;;;32.90;68.40;;;;;;5066934;28;20115;-63
2022/08/19 07:28:47;;;;;;;168.00;11.40;;;32.90;68.40;;;;;;5066763;28;20083;-62
2022/08/19 07:31:18;;;;;;;163.38;9.40;;;32.80;68.80;;;;;;5066717;28;20483;-62
2022/08/19 07:33:45;;;;;;;105.32;7.38;;;32.70;69.20;;;;;;5069399;28;20537;-65
2022/08/19 07:36:14;;;;;;;112.38;7.95;;;32.60;70.00;;;;;;5070855;28;20079;-65
2022/08/19 07:38:43;;;;;;;106.85;7.07;;;32.60;71.00;;;;;;5070243;28;20076;-64
2022/08/19 07:41:12;;;;;;;87.30;6.97;;;32.50;71.50;;;;;;5070728;28;20494;-64
2022/08/19 07:43:39;;;;;;;80.40;6.07;;;32.40;71.20;;;;;;5065819;28;20079;-63
2022/08/19 07:46:07;;;;;;;61.85;5.28;;;32.20;71.30;;;;;;5054495;28;20106;-63
2022/08/19 07:48:33;;;;;;;52.35;4.93;;;32.20;71.80;;;;;;5069389;28;20063;-67
2022/08/19 07:51:04;;;;;;;39.05;3.65;;;32.10;71.50;;;;;;5069680;28;20607;-65
2022/08/19 07:53:35;;;;;;;28.90;3.38;;;32.00;71.50;;;;;;5069830;28;20070;-63
2022/08/19 07:56:03;;;;;;;32.75;2.45;;;31.90;71.80;;;;;;5069832;28;20574;-65
2022/08/19 07:58:36;;;;;;;27.98;2.90;;;31.80;72.60;;;;;;5070145;28;20078;-66
2022/08/19 08:01:05;;;;;;;22.70;2.88;;;31.60;73.40;;;;;;5052460;28;20083;-65
2022/08/19 08:09:11;;;;;;;20.13;2.30;;;31.40;74.90;;;;;;5069158;28;20099;-65
2022/08/19 08:11:59;;;;;;;30.55;2.90;;;31.30;75.10;;;;;;5069397;28;20149;-63
2022/08/19 08:14:32;;;;;;;25.75;2.83;;;31.30;75.00;;;;;;5069419;28;20095;-65
2022/08/19 08:16:59;;;;;;;23.70;2.50;;;31.30;75.30;;;;;;5067754;28;20098;-67
2022/08/19 08:19:27;;;;;;;23.45;2.30;;;31.30;75.00;;;;;;5069803;28;20170;-65
2022/08/19 08:21:58;;;;;;;26.63;2.88;;;31.30;74.90;;;;;;5067686;28;20068;-64
2022/08/19 08:24:26;;;;;;;21.77;2.72;;;31.30;74.60;;;;;;5068121;28;20087;-64
2022/08/19 08:26:53;;;;;;;24.63;3.30;;;31.30;74.60;;;;;;5069511;28;20091;-64
2022/08/19 08:29:20;;;;;;;25.60;3.30;;;31.20;74.70;;;;;;5069214;28;20075;-65
2022/08/19 08:31:47;;;;;;;36.63;3.65;;;31.20;74.70;;;;;;5057487;28;20164;-66
2022/08/19 08:34:14;;;;;;;47.75;3.45;;;31.20;74.80;;;;;;5068528;28;20088;-64
2022/08/19 08:36:45;;;;;;;43.78;3.38;;;31.10;74.90;;;;;;5068602;28;20212;-64
2022/08/19 08:39:14;;;;;;;41.13;4.00;;;31.20;75.10;;;;;;5052050;28;20075;-64
2022/08/19 08:42:31;;;;;;;38.00;3.83;;;31.10;74.90;;;;;;5051580;28;20534;-64
2022/08/19 08:45:06;;;;;;;53.55;4.32;;;31.10;74.70;;;;;;5063647;28;20201;-66
2022/08/19 08:47:36;;;;;;;36.80;5.07;;;31.00;74.80;;;;;;5068753;28;20082;-64
2022/08/19 08:50:35;;;;;;;30.17;3.63;;;31.00;75.30;;;;;;5068185;28;20071;-65
2022/08/19 08:53:05;;;;;;;45.60;6.35;;;31.00;75.50;;;;;;5062907;28;20119;-63
2022/08/19 08:55:32;;;;;;;51.75;4.93;;;31.00;75.70;;;;;;5068636;28;21032;-64
2022/08/19 08:58:15;;;;;;;49.78;4.38;;;30.90;75.80;;;;;;5067932;28;20088;-65
2022/08/19 09:00:47;;;;;;;44.15;4.47;;;30.90;75.90;;;;;;5052003;28;20080;-65
2022/08/19 09:03:34;;;;;;;30.08;5.07;;;30.90;76.00;;;;;;5069943;28;20155;-63
2022/08/19 09:06:11;;;;;;;42.25;4.78;;;30.90;75.80;;;;;;5067877;28;20475;-63
2022/08/19 09:09:32;;;;;;;34.97;4.30;;;30.90;75.60;;;;;;5066252;28;20521;-63
2022/08/19 09:12:23;;;;;;;49.63;5.05;;;30.90;75.50;;;;;;5041246;28;20723;-64
2022/08/19 09:15:04;;;;;;;55.63;4.88;;;30.90;75.20;;;;;;5050929;28;20071;-63
2022/08/19 09:17:33;;;;;;;56.63;5.07;;;31.00;74.90;;;;;;5066950;28;20058;-65
2022/08/19 09:20:13;;;;;;;40.95;4.28;;;31.00;74.70;;;;;;5067501;28;20153;-65
2022/08/19 09:22:43;;;;;;;54.58;5.30;;;31.00;74.60;;;;;;5067607;28;20068;-64
2022/08/19 09:25:13;;;;;;;46.80;4.88;;;31.00;75.40;;;;;;5068180;28;20173;-64
2022/08/19 09:27:41;;;;;;;58.45;4.63;;;31.10;74.50;;;;;;5068517;28;20101;-63
2022/08/19 09:30:12;;;;;;;65.15;6.13;;;31.10;74.80;;;;;;5067694;28;20072;-67
2022/08/19 09:32:41;;;;;;;41.17;4.82;;;31.10;75.40;;;;;;5066103;28;20158;-64
2022/08/19 09:35:08;;;;;;;59.60;5.45;;;31.10;74.70;;;;;;5067373;28;20079;-64
2022/08/19 09:37:34;;;;;;;62.47;6.10;;;31.10;75.00;;;;;;5067032;28;20189;-64
2022/08/19 09:40:01;;;;;;;49.28;5.85;;;31.10;75.00;;;;;;5067363;28;20179;-65
2022/08/19 09:42:27;;;;;;;38.53;4.32;;;31.20;75.40;;;;;;5067642;28;20170;-65
2022/08/19 09:44:54;;;;;;;53.95;5.10;;;31.20;76.00;;;;;;5049899;28;20113;-66
2022/08/19 09:47:20;;;;;;;34.83;4.22;;;31.30;76.30;;;;;;5066468;28;20072;-64
2022/08/19 09:49:48;;;;;;;39.03;4.70;;;31.30;76.40;;;;;;5050911;28;20163;-65
2022/08/19 09:52:15;;;;;;;49.95;5.03;;;31.40;76.30;;;;;;5066848;28;20076;-63
2022/08/19 09:54:42;;;;;;;54.65;4.70;;;31.50;76.30;;;;;;5066806;28;20064;-64
2022/08/19 09:57:08;;;;;;;46.35;5.05;;;31.50;76.30;;;;;;5067729;28;20084;-66
2022/08/19 09:59:35;;;;;;;43.38;4.50;;;31.50;76.50;;;;;;5068076;28;20075;-65
2022/08/19 10:02:01;;;;;;;36.15;4.55;;;31.60;76.90;;;;;;5050965;28;20095;-65
2022/08/19 10:05:47;;;;;;;38.80;4.75;;;31.60;76.90;;;;;;5066994;28;20091;-63
2022/08/19 10:07:14;;;;;;;32.78;4.47;;;31.60;76.90;;;;;;5065484;28;20560;-61
2022/08/19 10:09:41;;;;;;;41.67;5.05;;;31.60;77.10;;;;;;5049546;28;20549;-65
2022/08/19 10:12:08;;;;;;;31.48;4.65;;;31.60;77.50;;;;;;5069586;28;20110;-64
2022/08/19 10:14:35;;;;;;;36.97;4.88;;;31.60;77.50;;;;;;5054204;28;20099;-64
2022/08/19 10:17:02;;;;;;;21.83;3.53;;;31.60;77.40;;;;;;5067104;28;20103;-63
2022/08/19 10:19:35;;;;;;;30.45;4.68;;;31.60;77.30;;;;;;5066715;28;20145;-65
2022/08/19 10:22:06;;;;;;;30.08;3.97;;;31.70;77.30;;;;;;5051267;28;20557;-65
2022/08/19 10:24:34;;;;;;;28.92;3.78;;;31.70;77.20;;;;;;5050293;28;20101;-64
2022/08/19 10:27:03;;;;;;;30.55;4.28;;;31.70;76.80;;;;;;5067353;28;20087;-64
2022/08/19 10:29:31;;;;;;;27.88;3.55;;;31.80;76.40;;;;;;5067410;28;20110;-63
2022/08/19 10:31:59;;;;;;;42.03;4.30;;;31.80;76.30;;;;;;5065602;28;20075;-64
2022/08/19 10:34:28;;;;;;;25.92;3.63;;;31.80;76.20;;;;;;5064024;28;20118;-65
2022/08/19 10:36:55;;;;;;;27.63;3.40;;;31.80;77.00;;;;;;5066814;28;20092;-65
2022/08/19 10:39:22;;;;;;;36.55;4.38;;;31.80;77.00;;;;;;5066892;28;20078;-65
2022/08/19 10:41:48;;;;;;;33.15;4.32;;;31.80;76.60;;;;;;5066751;28;20079;-64
2022/08/19 10:44:16;;;;;;;35.83;3.58;;;31.80;76.70;;;;;;5066464;28;20170;-64
2022/08/19 10:46:44;;;;;;;32.63;4.20;;;31.80;76.60;;;;;;5066771;28;20083;-65
2022/08/19 10:49:11;;;;;;;24.50;3.60;;;31.80;76.30;;;;;;5066627;28;20088;-64
2022/08/19 10:56:50;;;;;;;;;;;31.80;76.60;;;;;;5068080;28;20152;-65
2022/08/19 10:57:11;;;;;;;40.20;4.10;;;31.80;76.50;;;;;;5072217;28;19964;-65
2022/08/19 10:59:38;;;;;;;28.08;3.97;;;31.80;76.00;;;;;;5066287;28;20072;-65
2022/08/19 11:02:12;;;;;;;36.53;3.55;;;31.80;75.70;;;;;;5066229;28;20096;-65
2022/08/19 11:04:40;;;;;;;42.60;4.30;;;31.90;75.60;;;;;;5068218;28;20095;-65
2022/08/19 11:07:07;;;;;;;37.28;4.20;;;31.80;75.20;;;;;;5071342;28;20089;-65
2022/08/19 11:09:39;;;;;;;29.70;3.95;;;31.80;75.00;;;;;;5071375;28;20072;-65
2022/08/19 11:12:07;;;;;;;32.28;4.63;;;31.80;75.80;;;;;;5072148;28;20514;-64
2022/08/19 11:14:34;;;;;;;40.83;5.63;;;31.80;77.50;;;;;;5071675;28;20068;-67
2022/08/19 11:17:01;;;;;;;45.70;5.55;;;31.80;78.10;;;;;;5070307;28;20548;-67
2022/08/19 11:19:27;;;;;;;51.15;6.30;;;31.80;78.70;;;;;;5070696;28;20628;-64
2022/08/19 11:21:54;;;;;;;49.55;5.32;;;31.70;78.60;;;;;;5071594;28;20463;-64
2022/08/19 11:24:23;;;;;;;51.25;5.97;;;31.60;79.40;;;;;;5070245;28;20079;-64
2022/08/19 11:26:56;;;;;;;43.92;5.63;;;31.60;79.60;;;;;;5069872;28;20100;-64
2022/08/19 11:29:27;;;;;;;58.05;5.93;;;31.50;79.70;;;;;;5070541;28;20561;-64
2022/08/19 11:31:54;;;;;;;55.45;5.70;;;31.50;80.00;;;;;;5069598;28;20159;-65
2022/08/19 11:34:25;;;;;;;55.10;6.32;;;31.30;80.20;;;;;;5068261;28;20172;-64
2022/08/19 11:36:52;;;;;;;72.00;6.25;;;31.30;80.90;;;;;;5069062;28;20501;-65
2022/08/19 11:39:21;;;;;;;53.70;5.43;;;31.30;79.80;;;;;;5070989;28;20088;-65
2022/08/19 11:41:48;;;;;;;57.90;5.30;;;31.20;79.60;;;;;;5069517;28;20075;-64
2022/08/19 11:44:15;;;;;;;47.00;5.13;;;31.00;81.70;;;;;;5069588;28;20723;-65
2022/08/19 11:46:46;;;;;;;41.92;4.15;;;30.90;80.90;;;;;;5069882;28;20102;-64
2022/08/19 11:49:19;;;;;;;46.75;5.53;;;30.90;81.40;;;;;;5068889;28;20163;-66
2022/08/19 11:51:46;;;;;;;45.72;4.93;;;30.80;81.50;;;;;;5068801;28;20068;-65
2022/08/19 11:54:15;;;;;;;52.72;5.47;;;30.80;81.70;;;;;;5069250;28;20095;-64
2022/08/19 11:56:42;;;;;;;60.90;4.75;;;30.60;82.20;;;;;;5069104;28;20118;-65
2022/08/19 11:59:10;;;;;;;41.95;5.65;;;30.60;82.50;;;;;;5075568;28;20084;-64
2022/08/19 12:01:37;;;;;;;46.90;5.13;;;30.70;82.10;;;;;;5069886;28;20088;-65
2022/08/19 12:04:04;;;;;;;40.97;4.00;;;30.70;83.10;;;;;;5069959;28;20072;-65
2022/08/19 12:06:34;;;;;;;53.63;5.30;;;30.70;82.70;;;;;;5070021;28;20099;-63
2022/08/19 12:09:04;;;;;;;48.97;5.32;;;30.60;82.80;;;;;;5051955;28;20084;-65
2022/08/19 12:11:31;;;;;;;43.40;5.60;;;30.50;83.00;;;;;;5068648;28;20083;-64
2022/08/19 12:13:57;;;;;;;56.88;4.75;;;30.60;83.40;;;;;;5053453;28;20068;-64
2022/08/19 12:16:27;;;;;;;48.50;4.93;;;30.50;83.50;;;;;;5068562;28;20098;-63
2022/08/19 12:18:55;;;;;;;45.45;4.70;;;30.50;84.30;;;;;;5069537;28;20096;-66
2022/08/19 12:21:30;;;;;;;56.25;5.65;;;30.50;83.80;;;;;;5069945;28;20083;-66
2022/08/19 12:23:58;;;;;;;45.95;5.05;;;30.40;83.90;;;;;;5068353;28;20094;-64
2022/08/19 12:26:26;;;;;;;49.15;4.72;;;30.30;84.50;;;;;;5069894;28;20188;-65
2022/08/19 12:28:53;;;;;;;62.65;6.10;;;30.30;85.30;;;;;;5052408;28;20430;-64
2022/08/19 12:31:20;;;;;;;43.38;4.53;;;30.40;84.60;;;;;;5070146;28;20092;-63
2022/08/19 12:33:47;;;;;;;51.33;5.63;;;30.30;84.40;;;;;;5069646;28;20072;-64
2022/08/19 12:36:15;;;;;;;44.85;5.07;;;30.30;85.50;;;;;;5055866;28;20072;-64
2022/08/19 12:38:43;;;;;;;39.80;4.93;;;30.30;84.90;;;;;;5052286;28;20083;-65
2022/08/19 12:41:13;;;;;;;57.08;5.10;;;30.30;84.90;;;;;;5049905;28;20176;-67
2022/08/19 12:43:41;;;;;;;52.22;4.93;;;30.30;85.10;;;;;;5071464;28;20079;-64
2022/08/19 12:46:08;;;;;;;33.15;4.40;;;30.30;85.30;;;;;;5068238;28;20092;-66
2022/08/19 12:48:35;;;;;;;29.15;4.57;;;30.30;85.50;;;;;;5069423;28;20099;-64
2022/08/19 12:51:07;;;;;;;37.95;4.57;;;30.20;85.90;;;;;;5068637;28;20079;-64
2022/08/19 12:53:33;;;;;;;55.78;5.00;;;30.20;86.50;;;;;;5068666;28;20482;-65
2022/08/19 12:56:00;;;;;;;41.97;4.38;;;30.20;86.10;;;;;;5069235;28;20746;-65
2022/08/19 12:58:27;;;;;;;42.00;4.45;;;30.20;86.50;;;;;;5068201;28;20080;-64
2022/08/19 13:00:53;;;;;;;38.63;4.43;;;30.20;86.60;;;;;;5069232;28;20080;-66
2022/08/19 13:03:22;;;;;;;53.78;4.47;;;30.20;86.80;;;;;;5072839;28;20070;-66
2022/08/19 13:05:50;;;;;;;49.60;3.78;;;30.20;86.30;;;;;;5067228;28;20088;-65